sensor_id;sensor_type;location;lat;lon;timestamp;pressure;altitude;pressure_sealevel;temperature;humidity
22862;BME280;11598;50.652;6.172;2023-01-30T00:09:07;96825.00;;;-0.19;100.00
22862;BME280;11598;50.652;6.172;2023-01-30T00:19:10;96785.75;;;-0.17;100.00
22862;BME280;11598;50.652;6.172;2023-01-30T00:29:10;96773.84;;;-0.16;100.00
22862;BME280;11598;50.652;6.172;2023-01-30T00:39:10;96742.28;;;-0.14;100.00
22862;BME280;11598;50.652;6.172;2023-01-30T00:49:11;96764.38;;;-0.13;100.00
22862;BME280;11598;50.652;6.172;2023-01-30T00:59:11;96754.16;;;-0.13;100.00
22862;BME280;11598;50.652;6.172;2023-01-30T01:09:12;96717.50;;;-0.10;100.00
22862;BME280;11598;50.652;6.172;2023-01-30T01:19:12;96703.09;;;-0.13;100.00
22862;BME280;11598;50.652;6.172;2023-01-30T01:29:14;96712.38;;;-0.10;100.00
22862;BME280;11598;50.652;6.172;2023-01-30T01:39:15;96700.44;;;-0.10;100.00
22862;BME280;11598;50.652;6.172;2023-01-30T01:49:20;96724.19;;;-0.06;100.00
22862;BME280;11598;50.652;6.172;2023-01-30T01:59:26;96728.34;;;-0.02;100.00
22862;BME280;11598;50.652;6.172;2023-01-30T02:09:29;96717.25;;;-0.03;100.00
22862;BME280;11598;50.652;6.172;2023-01-30T02:19:46;96725.91;;;-0.07;100.00
22862;BME280;11598;50.652;6.172;2023-01-30T02:40:40;96699.50;;;-0.07;100.00
22862;BME280;11598;50.652;6.172;2023-01-30T02:50:48;96688.41;;;-0.05;100.00
22862;BME280;11598;50.652;6.172;2023-01-30T03:11:23;96668.66;;;0.01;100.00
22862;BME280;11598;50.652;6.172;2023-01-30T03:21:28;96628.59;;;0.03;100.00
22862;BME280;11598;50.652;6.172;2023-01-30T03:31:29;96605.41;;;0.09;100.00
22862;BME280;11598;50.652;6.172;2023-01-30T03:41:29;96598.38;;;0.15;100.00
22862;BME280;11598;50.652;6.172;2023-01-30T03:51:30;96603.38;;;0.20;100.00
22862;BME280;11598;50.652;6.172;2023-01-30T04:01:30;96583.69;;;0.24;100.00
22862;BME280;11598;50.652;6.172;2023-01-30T04:11:30;96587.84;;;0.26;100.00
22862;BME280;11598;50.652;6.172;2023-01-30T04:21:31;96580.88;;;0.31;100.00
22862;BME280;11598;50.652;6.172;2023-01-30T04:31:32;96570.50;;;0.36;100.00
22862;BME280;11598;50.652;6.172;2023-01-30T04:41:32;96569.59;;;0.37;100.00
22862;BME280;11598;50.652;6.172;2023-01-30T04:51:32;96567.81;;;0.40;100.00
22862;BME280;11598;50.652;6.172;2023-01-30T05:01:35;96562.56;;;0.44;100.00
22862;BME280;11598;50.652;6.172;2023-01-30T05:11:36;96549.91;;;0.40;100.00
22862;BME280;11598;50.652;6.172;2023-01-30T05:21:37;96546.41;;;0.43;100.00
22862;BME280;11598;50.652;6.172;2023-01-30T05:31:37;96542.91;;;0.46;100.00
22862;BME280;11598;50.652;6.172;2023-01-30T05:41:37;96553.00;;;0.50;100.00
22862;BME280;11598;50.652;6.172;2023-01-30T05:51:38;96541.88;;;0.51;100.00
22862;BME280;11598;50.652;6.172;2023-01-30T06:01:38;96545.16;;;0.55;100.00
22862;BME280;11598;50.652;6.172;2023-01-30T06:11:38;96539.22;;;0.54;100.00
22862;BME280;11598;50.652;6.172;2023-01-30T06:21:39;96534.13;;;0.54;100.00
22862;BME280;11598;50.652;6.172;2023-01-30T06:31:39;96535.78;;;0.55;100.00
22862;BME280;11598;50.652;6.172;2023-01-30T06:41:40;96567.13;;;0.60;100.00
22862;BME280;11598;50.652;6.172;2023-01-30T06:51:40;96555.09;;;0.64;100.00
22862;BME280;11598;50.652;6.172;2023-01-30T07:01:40;96554.09;;;0.68;100.00
22862;BME280;11598;50.652;6.172;2023-01-30T07:11:41;96580.38;;;0.73;100.00
22862;BME280;11598;50.652;6.172;2023-01-30T07:21:41;96570.81;;;0.78;100.00
22862;BME280;11598;50.652;6.172;2023-01-30T07:31:41;96575.69;;;0.84;100.00
22862;BME280;11598;50.652;6.172;2023-01-30T07:41:42;96577.13;;;0.93;100.00
22862;BME280;11598;50.652;6.172;2023-01-30T07:51:42;96580.09;;;1.06;100.00
22862;BME280;11598;50.652;6.172;2023-01-30T08:01:43;96606.28;;;1.13;100.00
22862;BME280;11598;50.652;6.172;2023-01-30T08:11:43;96612.84;;;1.20;100.00
22862;BME280;11598;50.652;6.172;2023-01-30T08:21:43;96629.44;;;1.35;100.00
22862;BME280;11598;50.652;6.172;2023-01-30T08:31:44;96632.38;;;1.47;100.00
22862;BME280;11598;50.652;6.172;2023-01-30T08:41:44;96620.81;;;1.61;100.00
22862;BME280;11598;50.652;6.172;2023-01-30T08:51:44;96613.50;;;1.74;100.00
22862;BME280;11598;50.652;6.172;2023-01-30T09:01:45;96649.28;;;1.77;100.00
22862;BME280;11598;50.652;6.172;2023-01-30T09:11:45;96644.81;;;1.82;100.00
22862;BME280;11598;50.652;6.172;2023-01-30T09:21:51;96642.38;;;1.79;100.00
22862;BME280;11598;50.652;6.172;2023-01-30T09:31:52;96668.47;;;1.65;100.00
22862;BME280;11598;50.652;6.172;2023-01-30T09:52:38;96707.66;;;1.67;100.00
22862;BME280;11598;50.652;6.172;2023-01-30T10:13:36;96697.16;;;2.22;100.00
22862;BME280;11598;50.652;6.172;2023-01-30T10:44:26;96692.22;;;2.39;100.00
22862;BME280;11598;50.652;6.172;2023-01-30T11:04:41;96714.31;;;2.20;100.00
22862;BME280;11598;50.652;6.172;2023-01-30T11:14:56;96707.72;;;2.36;100.00
22862;BME280;11598;50.652;6.172;2023-01-30T11:25:24;96700.84;;;2.15;100.00
22862;BME280;11598;50.652;6.172;2023-01-30T11:35:26;96708.91;;;2.04;100.00
22862;BME280;11598;50.652;6.172;2023-01-30T11:45:27;96707.75;;;2.13;100.00
22862;BME280;11598;50.652;6.172;2023-01-30T11:55:32;96702.81;;;2.30;100.00
22862;BME280;11598;50.652;6.172;2023-01-30T12:05:36;96719.28;;;2.24;100.00
22862;BME280;11598;50.652;6.172;2023-01-30T12:15:42;96721.88;;;2.23;100.00
22862;BME280;11598;50.652;6.172;2023-01-30T12:36:50;96697.25;;;2.19;100.00
22862;BME280;11598;50.652;6.172;2023-01-30T12:57:26;96723.78;;;1.94;100.00
22862;BME280;11598;50.652;6.172;2023-01-30T13:07:53;96735.94;;;1.89;100.00
22862;BME280;11598;50.652;6.172;2023-01-30T13:18:06;96736.13;;;1.83;100.00
22862;BME280;11598;50.652;6.172;2023-01-30T13:28:20;96748.31;;;1.76;100.00
22862;BME280;11598;50.652;6.172;2023-01-30T13:38:25;96743.00;;;1.82;100.00
22862;BME280;11598;50.652;6.172;2023-01-30T13:48:53;96773.38;;;1.93;100.00
22862;BME280;11598;50.652;6.172;2023-01-30T14:09:23;96787.19;;;2.13;100.00
22862;BME280;11598;50.652;6.172;2023-01-30T14:39:48;96840.09;;;2.15;100.00
22862;BME280;11598;50.652;6.172;2023-01-30T14:49:51;96857.50;;;2.05;100.00
22862;BME280;11598;50.652;6.172;2023-01-30T15:40:43;96947.22;;;1.79;100.00
22862;BME280;11598;50.652;6.172;2023-01-30T15:50:48;96961.88;;;1.74;100.00
22862;BME280;11598;50.652;6.172;2023-01-30T16:00:53;96962.06;;;1.67;100.00
22862;BME280;11598;50.652;6.172;2023-01-30T16:10:55;96964.84;;;1.60;100.00
22862;BME280;11598;50.652;6.172;2023-01-30T16:21:01;96982.28;;;1.48;100.00
22862;BME280;11598;50.652;6.172;2023-01-30T16:31:07;96999.69;;;1.37;100.00
22862;BME280;11598;50.652;6.172;2023-01-30T16:41:36;97016.84;;;1.34;100.00
22862;BME280;11598;50.652;6.172;2023-01-30T16:51:38;97030.53;;;1.33;100.00
22862;BME280;11598;50.652;6.172;2023-01-30T17:01:40;97039.97;;;1.31;100.00
22862;BME280;11598;50.652;6.172;2023-01-30T17:11:40;97051.13;;;1.28;100.00
22862;BME280;11598;50.652;6.172;2023-01-30T17:21:47;97058.09;;;1.23;100.00
22862;BME280;11598;50.652;6.172;2023-01-30T17:31:49;97072.56;;;1.24;100.00
22862;BME280;11598;50.652;6.172;2023-01-30T17:41:50;97093.03;;;1.25;100.00
22862;BME280;11598;50.652;6.172;2023-01-30T17:51:51;97114.25;;;1.29;100.00
22862;BME280;11598;50.652;6.172;2023-01-30T18:01:52;97112.69;;;1.23;100.00
22862;BME280;11598;50.652;6.172;2023-01-30T18:11:52;97126.31;;;1.24;100.00
22862;BME280;11598;50.652;6.172;2023-01-30T18:21:52;97137.47;;;1.21;100.00
22862;BME280;11598;50.652;6.172;2023-01-30T18:31:53;97156.31;;;1.19;100.00
22862;BME280;11598;50.652;6.172;2023-01-30T18:41:53;97150.50;;;1.14;100.00
22862;BME280;11598;50.652;6.172;2023-01-30T18:51:54;97176.22;;;1.08;100.00
22862;BME280;11598;50.652;6.172;2023-01-30T19:01:54;97186.63;;;1.01;100.00
22862;BME280;11598;50.652;6.172;2023-01-30T19:11:54;97192.59;;;1.02;100.00
22862;BME280;11598;50.652;6.172;2023-01-30T19:22:13;97198.53;;;1.02;100.00
22862;BME280;11598;50.652;6.172;2023-01-30T19:32:14;97202.72;;;1.05;100.00
22862;BME280;11598;50.652;6.172;2023-01-30T19:42:14;97207.81;;;1.07;100.00
22862;BME280;11598;50.652;6.172;2023-01-30T19:52:15;97218.88;;;1.09;100.00
22862;BME280;11598;50.652;6.172;2023-01-30T20:02:15;97229.03;;;1.12;100.00
22862;BME280;11598;50.652;6.172;2023-01-30T20:12:17;97230.69;;;1.13;100.00
22862;BME280;11598;50.652;6.172;2023-01-30T20:22:17;97238.38;;;1.13;100.00
22862;BME280;11598;50.652;6.172;2023-01-30T20:32:18;97243.47;;;1.13;100.00
22862;BME280;11598;50.652;6.172;2023-01-30T20:42:19;97249.38;;;1.16;100.00
22862;BME280;11598;50.652;6.172;2023-01-30T20:52:19;97252.81;;;1.15;100.00
22862;BME280;11598;50.652;6.172;2023-01-30T21:02:20;97273.28;;;1.15;100.00
22862;BME280;11598;50.652;6.172;2023-01-30T21:12:21;97266.47;;;1.16;100.00
22862;BME280;11598;50.652;6.172;2023-01-30T21:22:22;97280.19;;;1.13;100.00
22862;BME280;11598;50.652;6.172;2023-01-30T21:32:23;97287.09;;;1.08;100.00
22862;BME280;11598;50.652;6.172;2023-01-30T21:42:23;97282.06;;;1.05;100.00
22862;BME280;11598;50.652;6.172;2023-01-30T21:52:42;97283.91;;;0.98;100.00
22862;BME280;11598;50.652;6.172;2023-01-30T22:02:43;97289.91;;;0.99;100.00
22862;BME280;11598;50.652;6.172;2023-01-30T22:12:43;97295.03;;;0.97;100.00
22862;BME280;11598;50.652;6.172;2023-01-30T22:22:43;97312.22;;;0.92;100.00
22862;BME280;11598;50.652;6.172;2023-01-30T22:32:44;97308.03;;;0.88;100.00
22862;BME280;11598;50.652;6.172;2023-01-30T22:42:45;97319.41;;;0.75;100.00
22862;BME280;11598;50.652;6.172;2023-01-30T22:52:46;97301.56;;;0.72;100.00
22862;BME280;11598;50.652;6.172;2023-01-30T23:02:46;97309.28;;;0.70;100.00
22862;BME280;11598;50.652;6.172;2023-01-30T23:12:47;97308.44;;;0.70;100.00
22862;BME280;11598;50.652;6.172;2023-01-30T23:23:05;97304.31;;;0.64;100.00
22862;BME280;11598;50.652;6.172;2023-01-30T23:33:06;97303.59;;;0.56;100.00
22862;BME280;11598;50.652;6.172;2023-01-30T23:43:06;97297.09;;;0.41;100.00
22862;BME280;11598;50.652;6.172;2023-01-30T23:53:08;97302.41;;;0.32;100.00
